Time;durP1;ratioP1;P1;durP2;ratioP2;P2;SDS_P1;SDS_P2;PMS_P1;PMS_P2;Temp;Humidity;BMP_temperature;BMP_pressure;BME280_temperature;BME280_humidity;BME280_pressure;Samples;Min_cycle;Max_cycle;Signal;HPM_P1;HPM_P2
2022/12/26 00:01:26;;;;;;;3.60;1.70;;;;;;;18.07;55.90;100801.00;5072447;28;20496;-64
2022/12/26 00:03:52;;;;;;;4.82;1.50;;;;;;;18.05;56.04;100798.50;5072499;28;20393;-64
2022/12/26 00:06:20;;;;;;;4.10;1.80;;;;;;;18.03;55.06;100806.78;5054167;28;20039;-64
2022/12/26 00:08:46;;;;;;;4.55;1.48;;;;;;;18.06;56.35;100810.19;5032983;28;20319;-64
2022/12/26 00:11:12;;;;;;;4.55;1.50;;;;;;;18.05;55.65;100801.19;5036355;28;20044;-64
2022/12/26 00:13:39;;;;;;;5.95;1.58;;;;;;;18.08;55.97;100805.41;5054043;28;20029;-64
2022/12/26 00:16:17;;;;;;;3.75;1.30;;;;;;;18.12;55.80;100809.47;5037738;28;20039;-65
2022/12/26 00:18:42;;;;;;;3.15;1.52;;;;;;;18.15;55.60;100814.50;5054059;28;20025;-63
2022/12/26 00:21:10;;;;;;;3.85;1.58;;;;;;;18.15;55.20;100806.38;5037424;28;20035;-64
2022/12/26 00:23:36;;;;;;;3.00;1.67;;;;;;;18.15;54.95;100812.66;5054342;28;20021;-67
2022/12/26 00:26:13;;;;;;;4.10;1.20;;;;;;;18.12;56.07;100806.75;5054295;28;20374;-67
2022/12/26 00:28:39;;;;;;;3.20;1.65;;;;;;;18.09;55.91;100807.94;5037236;28;20033;-71
2022/12/26 00:31:26;;;;;;;2.45;1.77;;;;;;;18.06;55.73;100794.78;5053659;28;20028;-66
2022/12/26 00:33:52;;;;;;;4.47;1.80;;;;;;;18.08;55.92;100808.13;5067348;28;20485;-66
2022/12/26 00:36:21;;;;;;;4.53;2.17;;;;;;;18.07;55.50;100811.84;5036643;28;20036;-67
2022/12/26 00:38:46;;;;;;;6.07;1.83;;;;;;;18.04;55.01;100824.75;5068923;28;20039;-66
2022/12/26 00:41:13;;;;;;;3.65;1.80;;;;;;;18.06;55.30;100821.03;5071564;28;20481;-66
2022/12/26 00:43:39;;;;;;;8.07;1.65;;;;;;;18.02;55.31;100818.66;5053613;28;20063;-66
2022/12/26 00:46:05;;;;;;;3.95;1.90;;;;;;;17.97;56.39;100815.66;5037040;28;20508;-65
2022/12/26 00:48:30;;;;;;;8.13;1.77;;;;;;;17.94;55.71;100818.72;5053366;28;20063;-65
2022/12/26 00:50:56;;;;;;;7.30;1.67;;;;;;;17.92;55.55;100826.16;5036963;28;20025;-67
2022/12/26 00:53:25;;;;;;;4.43;1.80;;;;;;;17.90;56.25;100833.63;5037492;28;20498;-67
2022/12/26 00:55:50;;;;;;;4.70;1.73;;;;;;;17.86;55.60;100837.72;5053668;28;20381;-66
2022/12/26 00:58:16;;;;;;;3.65;1.67;;;;;;;17.86;56.79;100840.44;5038184;28;20039;-66
2022/12/26 01:00:42;;;;;;;6.72;1.73;;;;;;;17.82;56.12;100844.50;5037476;28;20501;-66
2022/12/26 01:03:08;;;;;;;4.18;1.50;;;;;;;17.81;55.62;100855.53;5054458;28;20044;-66
2022/12/26 01:05:34;;;;;;;2.65;1.48;;;;;;;17.80;56.30;100848.41;5038810;28;20027;-63
2022/12/26 01:07:59;;;;;;;4.43;2.17;;;;;;;17.78;56.33;100845.84;5054736;28;20032;-65
2022/12/26 01:10:26;;;;;;;3.00;1.70;;;;;;;17.75;56.24;100846.25;5038217;28;20041;-66
2022/12/26 01:12:51;;;;;;;5.55;1.63;;;;;;;17.76;56.53;100841.63;5055041;28;20167;-66
2022/12/26 01:15:17;;;;;;;5.63;1.73;;;;;;;17.80;55.90;100851.97;5038143;28;20033;-66
2022/12/26 01:17:43;;;;;;;4.15;1.95;;;;;;;17.80;56.14;100857.41;5073060;28;20382;-67
2022/12/26 01:20:09;;;;;;;3.28;1.40;;;;;;;17.84;55.73;100864.13;5038604;28;20028;-67
2022/12/26 01:22:36;;;;;;;2.58;1.85;;;;;;;17.84;56.01;100858.72;5038013;28;20037;-67
2022/12/26 01:25:01;;;;;;;2.78;1.70;;;;;;;17.86;56.12;100862.13;5054910;28;20060;-67
2022/12/26 01:27:27;;;;;;;2.85;1.70;;;;;;;17.88;56.21;100849.22;5054842;28;20052;-67
2022/12/26 01:29:53;;;;;;;3.78;1.77;;;;;;;17.88;55.63;100849.22;5072555;28;20068;-63
2022/12/26 01:32:18;;;;;;;2.03;1.48;;;;;;;17.86;56.30;100851.28;5055144;28;20029;-64
2022/12/26 01:34:44;;;;;;;2.35;1.55;;;;;;;17.81;55.94;100859.06;5071768;28;20060;-67
2022/12/26 01:37:12;;;;;;;3.47;1.52;;;;;;;17.81;56.45;100872.63;5053554;28;20029;-67
2022/12/26 01:39:37;;;;;;;2.42;1.60;;;;;;;17.79;56.18;100866.53;5054532;28;20102;-70
2022/12/26 01:42:10;;;;;;;3.03;1.63;;;;;;;17.80;55.49;100864.66;5054532;28;20504;-65
2022/12/26 01:44:54;;;;;;;1.88;1.30;;;;;;;17.80;56.31;100860.09;5054858;28;20057;-64
2022/12/26 01:47:19;;;;;;;2.05;1.35;;;;;;;17.77;56.30;100860.44;5054218;28;20037;-64
2022/12/26 01:49:48;;;;;;;2.13;1.17;;;;;;;17.76;56.03;100856.03;5054257;28;20043;-64
2022/12/26 01:52:32;;;;;;;1.95;1.17;;;;;;;17.77;56.79;100871.28;5054324;28;20061;-64
2022/12/26 01:54:59;;;;;;;2.10;1.40;;;;;;;17.75;56.47;100881.47;5021575;28;20032;-65
2022/12/26 01:57:30;;;;;;;1.95;1.20;;;;;;;17.76;56.24;100888.56;5021364;28;20047;-64
2022/12/26 01:59:57;;;;;;;1.67;1.27;;;;;;;17.80;55.94;100895.34;5054633;28;20025;-65
2022/12/26 02:02:24;;;;;;;1.55;1.38;;;;;;;17.82;56.33;100887.88;5072631;28;20396;-64
2022/12/26 02:07:37;;;;;;;4.72;1.60;;;;;;;17.91;56.07;100891.41;5072178;28;20039;-64
2022/12/26 02:10:06;;;;;;;1.92;1.48;;;;;;;17.95;56.18;100890.84;5054256;28;20029;-64
2022/12/26 02:12:34;;;;;;;2.45;1.63;;;;;;;17.98;56.48;100890.50;5056362;28;20035;-65
2022/12/26 02:15:01;;;;;;;2.42;1.67;;;;;;;18.04;56.25;100887.09;5057871;28;20029;-63
2022/12/26 02:17:26;;;;;;;1.67;1.33;;;;;;;18.07;55.89;100898.59;5075151;28;20033;-64
2022/12/26 02:19:57;;;;;;;1.95;1.40;;;;;;;18.09;56.01;100897.41;5058167;28;20074;-64
2022/12/26 02:22:35;;;;;;;4.93;1.85;;;;;;;18.08;55.74;100906.56;5076460;28;20029;-64
2022/12/26 02:25:38;;;;;;;2.65;1.70;;;;;;;18.08;55.49;100919.28;5058511;28;20119;-65
2022/12/26 02:28:06;;;;;;;6.93;1.70;;;;;;;18.07;56.06;100917.59;5058547;28;20119;-64
2022/12/26 02:30:44;;;;;;;2.70;1.52;;;;;;;18.07;55.76;100910.31;5058482;28;20064;-64
2022/12/26 02:33:44;;;;;;;4.07;2.45;;;;;;;18.07;55.09;100909.44;5057812;28;20021;-64
2022/12/26 02:36:15;;;;;;;1.52;1.30;;;;;;;18.09;55.25;100912.84;5074179;28;20036;-64
2022/12/26 02:38:56;;;;;;;3.15;1.45;;;;;;;18.08;56.24;100911.16;5057462;28;20024;-64
2022/12/26 02:41:30;;;;;;;3.22;1.50;;;;;;;18.10;55.21;100915.38;5057910;28;20475;-63
2022/12/26 02:47:24;;;;;;;1.83;1.40;;;;;;;18.15;55.64;100912.13;5075472;28;20043;-64
2022/12/26 03:13:35;;;;;;;3.28;1.90;;;;;;;18.17;55.00;100937.22;5045696;28;20085;-64
2022/12/26 03:18:50;;;;;;;6.32;2.53;;;;;;;18.19;55.07;100952.28;5074756;28;20035;-64
2022/12/26 03:21:19;;;;;;;3.38;2.25;;;;;;;18.17;55.29;100940.78;5056937;28;20082;-64
2022/12/26 03:23:45;;;;;;;4.03;2.17;;;;;;;18.15;55.35;100929.25;5039145;28;20075;-64
2022/12/26 03:31:46;;;;;;;3.10;1.77;;;;;;;18.11;55.11;100921.66;5074406;28;20040;-64
2022/12/26 03:34:18;;;;;;;2.00;1.80;;;;;;;18.11;54.35;100924.34;5056492;28;20412;-64
2022/12/26 03:37:07;;;;;;;3.80;2.00;;;;;;;18.12;54.10;100926.06;5040662;28;20040;-64
2022/12/26 04:44:11;;;;;;;4.35;1.70;;;;;;;17.91;54.80;100932.91;5057814;28;20056;-63
2022/12/26 04:46:40;;;;;;;3.08;1.70;;;;;;;17.93;54.66;100936.28;5037421;28;20044;-63
2022/12/26 04:51:51;;;;;;;3.40;1.63;;;;;;;17.96;54.59;100925.09;5044380;28;20063;-64
2022/12/26 04:54:17;;;;;;;1.60;1.20;;;;;;;17.97;54.39;100926.78;5038676;28;20044;-69
2022/12/26 04:56:43;;;;;;;2.03;1.75;;;;;;;17.97;54.05;100937.63;5055138;28;20028;-65
2022/12/26 04:59:08;;;;;;;4.45;1.67;;;;;;;17.98;54.36;100935.75;5039106;28;20099;-63
2022/12/26 05:09:50;;;;;;;2.03;1.10;;;;;;;17.91;54.22;100927.47;5057481;28;20074;-64
2022/12/26 05:12:16;;;;;;;2.83;1.75;;;;;;;17.93;54.04;100925.44;5038339;28;20028;-64
2022/12/26 05:14:41;;;;;;;3.20;1.23;;;;;;;17.93;54.46;100925.44;5054785;28;20373;-63
2022/12/26 05:30:54;;;;;;;1.40;1.23;;;;;;;17.91;54.43;100924.78;5072447;28;20458;-63
2022/12/26 05:36:03;;;;;;;2.60;1.35;;;;;;;17.91;54.21;100922.06;5072682;28;20564;-63
2022/12/26 05:38:29;;;;;;;1.63;1.05;;;;;;;17.92;53.98;100922.91;5055150;28;20086;-63
2022/12/26 05:40:54;;;;;;;1.80;0.88;;;;;;;17.91;53.89;100932.91;5054193;28;20036;-63
2022/12/26 05:43:19;;;;;;;4.30;1.60;;;;;;;17.90;53.72;100931.19;5054609;28;20436;-63
2022/12/26 05:45:45;;;;;;;1.33;0.90;;;;;;;17.87;54.47;100915.28;5072314;28;20060;-63
2022/12/26 05:48:10;;;;;;;1.70;1.00;;;;;;;17.87;53.82;100915.28;5041091;28;20503;-63
2022/12/26 05:50:36;;;;;;;2.10;1.30;;;;;;;17.87;53.57;100926.13;5058869;28;20055;-63
2022/12/26 05:53:02;;;;;;;1.58;1.25;;;;;;;17.86;54.55;100921.75;5058467;28;20032;-63
2022/12/26 05:55:28;;;;;;;3.42;1.05;;;;;;;17.85;54.68;100925.47;5042216;28;20086;-64
2022/12/26 05:57:53;;;;;;;2.88;0.95;;;;;;;17.84;54.28;100936.44;5041724;28;20036;-64
2022/12/26 06:00:19;;;;;;;1.70;1.15;;;;;;;17.85;53.58;100936.31;5058218;28;20028;-64
2022/12/26 06:02:45;;;;;;;1.85;1.00;;;;;;;17.83;54.57;100951.91;5041309;28;20468;-64
2022/12/26 06:05:10;;;;;;;1.95;0.90;;;;;;;17.80;54.26;100946.81;5076241;28;20104;-64
2022/12/26 06:07:36;;;;;;;2.97;0.73;;;;;;;17.80;53.40;100946.81;5076161;28;20060;-63
2022/12/26 06:10:03;;;;;;;1.20;0.77;;;;;;;17.79;54.37;100939.69;5058139;28;20111;-64
2022/12/26 06:12:28;;;;;;;2.60;0.70;;;;;;;17.78;53.74;100946.13;5041726;28;20492;-64
2022/12/26 06:14:53;;;;;;;3.70;0.77;;;;;;;17.76;54.20;100955.44;5058256;28;20035;-63
2022/12/26 06:17:19;;;;;;;1.42;0.65;;;;;;;17.75;53.93;100964.63;5076214;28;20047;-64
2022/12/26 06:19:44;;;;;;;0.88;0.73;;;;;;;17.71;54.21;100953.25;5057376;28;20036;-63
2022/12/26 06:22:10;;;;;;;1.75;0.70;;;;;;;17.68;53.79;100959.03;5057751;28;20063;-64
2022/12/26 06:24:35;;;;;;;0.90;0.63;;;;;;;17.66;54.14;100954.81;5024835;28;20116;-64
2022/12/26 06:27:01;;;;;;;2.55;0.60;;;;;;;17.68;54.82;100961.72;5057703;28;20116;-64
2022/12/26 06:29:26;;;;;;;0.93;0.52;;;;;;;17.68;54.62;100953.59;5075951;28;20485;-63
2022/12/26 06:31:51;;;;;;;1.58;0.63;;;;;;;17.67;54.09;100949.19;5057572;28;20515;-63
2022/12/26 06:34:17;;;;;;;1.90;0.70;;;;;;;17.66;54.69;100939.41;5075506;28;20067;-64
2022/12/26 06:36:43;;;;;;;2.45;0.38;;;;;;;17.64;54.07;100946.84;5075459;28;20097;-63
2022/12/26 06:39:08;;;;;;;0.35;0.32;;;;;;;17.61;53.87;100952.63;5040697;28;20566;-63
2022/12/26 06:41:34;;;;;;;0.52;0.50;;;;;;;17.60;54.26;100952.78;5057905;28;20461;-63
2022/12/26 06:43:59;;;;;;;1.23;0.50;;;;;;;17.59;54.41;100953.81;5057332;28;20048;-63
2022/12/26 06:46:25;;;;;;;1.00;0.55;;;;;;;17.59;54.60;100965.47;5075089;28;20055;-64
2022/12/26 06:48:51;;;;;;;0.50;0.50;;;;;;;17.59;55.19;100975.47;5041117;28;20037;-63
2022/12/26 06:51:22;;;;;;;0.68;0.68;;;;;;;17.56;54.55;100973.94;5040903;28;20033;-63
2022/12/26 06:53:48;;;;;;;0.82;0.38;;;;;;;17.53;53.65;100968.84;5040717;28;20020;-63
2022/12/26 06:56:20;;;;;;;0.15;0.15;;;;;;;17.50;54.19;100982.72;5075589;28;20496;-63
2022/12/26 06:58:45;;;;;;;1.20;0.25;;;;;;;17.50;53.73;100993.56;5039550;28;20082;-64
2022/12/26 07:01:13;;;;;;;0.10;0.10;;;;;;;17.51;54.27;101011.50;5075198;28;20495;-63
2022/12/26 07:03:39;;;;;;;2.13;0.22;;;;;;;17.53;53.77;101006.78;5056931;28;20029;-64
2022/12/26 07:06:26;;;;;;;1.88;0.30;;;;;;;17.54;54.45;101021.16;5057128;28;20511;-63
2022/12/26 07:08:53;;;;;;;1.20;0.30;;;;;;;17.56;54.50;101022.69;5049524;28;20488;-64
2022/12/26 07:11:21;;;;;;;0.30;0.20;;;;;;;17.56;54.40;101003.72;5040918;28;20123;-65
2022/12/26 07:13:46;;;;;;;0.73;0.20;;;;;;;17.55;53.14;101010.19;5040415;28;20048;-63
2022/12/26 07:16:12;;;;;;;0.30;0.30;;;;;;;17.55;53.53;101026.44;5057063;28;20040;-63
2022/12/26 07:18:37;;;;;;;0.43;0.17;;;;;;;17.57;53.21;101031.66;5056979;28;20515;-63
2022/12/26 07:21:07;;;;;;;0.50;0.20;;;;;;;17.56;53.03;101038.94;5074395;28;20025;-63
2022/12/26 07:23:33;;;;;;;0.45;0.20;;;;;;;17.56;54.02;101040.84;5039751;28;20028;-65
2022/12/26 07:25:58;;;;;;;0.30;0.17;;;;;;;17.55;53.80;101029.16;5040134;28;20431;-63
2022/12/26 07:28:24;;;;;;;1.30;0.20;;;;;;;17.56;54.11;101028.09;5056625;28;20444;-63
2022/12/26 07:30:50;;;;;;;0.32;0.30;;;;;;;17.56;53.51;101030.81;5038919;28;20039;-63
2022/12/26 07:33:16;;;;;;;0.65;0.30;;;;;;;17.54;53.12;101027.44;5056795;28;20031;-63
2022/12/26 07:35:41;;;;;;;1.50;0.57;;;;;;;17.54;53.84;101032.84;5039828;28;20056;-63
2022/12/26 07:38:07;;;;;;;1.20;0.68;;;;;;;17.53;53.38;101035.72;5055993;28;20043;-63
2022/12/26 07:40:32;;;;;;;0.35;0.30;;;;;;;17.53;53.60;101023.03;5039600;28;20068;-63
2022/12/26 07:42:58;;;;;;;0.10;0.10;;;;;;;17.51;54.34;101016.91;5056131;28;20119;-63
2022/12/26 07:45:23;;;;;;;0.60;0.20;;;;;;;17.53;53.45;101028.44;5056318;28;20535;-64
2022/12/26 07:47:53;;;;;;;0.63;0.20;;;;;;;17.56;53.26;101024.56;5039288;28;20048;-65
2022/12/26 07:50:18;;;;;;;0.20;0.20;;;;;;;17.57;52.81;101031.66;5074422;28;20020;-64
2022/12/26 07:52:44;;;;;;;0.50;0.50;;;;;;;17.58;53.16;101028.81;5055930;28;20396;-64
2022/12/26 07:55:09;;;;;;;2.03;0.28;;;;;;;17.59;53.39;101029.66;5073814;28;20040;-63
2022/12/26 07:57:35;;;;;;;0.35;0.30;;;;;;;17.59;52.49;101027.78;5074254;28;20141;-64
2022/12/26 08:00:01;;;;;;;10.75;0.95;;;;;;;17.60;52.93;101021.34;5055971;28;20032;-63
2022/12/26 08:02:27;;;;;;;0.80;0.32;;;;;;;17.61;53.14;101028.47;5074388;28;20113;-63
2022/12/26 08:04:52;;;;;;;0.75;0.28;;;;;;;17.59;53.53;101035.91;5039226;28;20108;-64
2022/12/26 08:07:17;;;;;;;0.38;0.38;;;;;;;17.61;53.25;101035.75;5055728;28;20500;-64
2022/12/26 08:09:44;;;;;;;0.45;0.40;;;;;;;17.61;53.52;101043.88;5039013;28;20032;-64
2022/12/26 08:12:09;;;;;;;0.38;0.38;;;;;;;17.62;53.49;101040.97;5036158;28;20031;-63
2022/12/26 08:14:39;;;;;;;4.38;0.25;;;;;;;17.59;53.60;101046.72;5035953;28;20037;-64
2022/12/26 08:17:04;;;;;;;2.55;0.52;;;;;;;17.58;53.29;101047.78;5035766;28;20045;-63
2022/12/26 08:19:30;;;;;;;0.43;0.30;;;;;;;17.58;53.16;101055.03;5053535;28;20448;-64
2022/12/26 08:21:55;;;;;;;0.63;0.45;;;;;;;17.58;53.41;101058.59;5018936;28;20056;-63
2022/12/26 08:24:20;;;;;;;3.42;0.60;;;;;;;17.56;52.92;101057.91;5053374;28;20033;-63
2022/12/26 08:26:46;;;;;;;3.60;0.30;;;;;;;17.60;53.25;101075.53;5035433;28;20040;-64
2022/12/26 08:29:11;;;;;;;0.28;0.28;;;;;;;17.58;53.50;101072.16;5053815;28;20028;-64
2022/12/26 08:31:37;;;;;;;0.98;0.55;;;;;;;17.57;53.07;101075.88;5018874;28;20501;-64
2022/12/26 08:34:02;;;;;;;0.57;0.30;;;;;;;17.57;53.51;101070.44;5035288;28;20044;-64
2022/12/26 08:36:27;;;;;;;0.40;0.40;;;;;;;17.58;53.20;101076.72;5052964;28;20168;-64
2022/12/26 08:38:53;;;;;;;0.20;0.20;;;;;;;17.57;53.12;101075.88;5034423;28;20123;-64
2022/12/26 08:41:18;;;;;;;0.65;0.65;;;;;;;17.57;53.47;101073.16;5035393;28;20033;-64
2022/12/26 08:43:51;;;;;;;2.90;0.35;;;;;;;17.56;53.12;101079.56;5037947;28;20044;-65
2022/12/26 08:46:17;;;;;;;0.75;0.57;;;;;;;17.55;53.04;101080.63;5038551;28;20036;-63
2022/12/26 08:48:43;;;;;;;2.42;0.63;;;;;;;17.58;52.87;101080.28;5055175;28;20063;-64
2022/12/26 08:51:16;;;;;;;0.45;0.30;;;;;;;17.60;53.24;101071.97;5055139;28;20029;-65
2022/12/26 08:53:42;;;;;;;2.35;0.50;;;;;;;17.63;52.67;101079.75;5054940;28;20380;-64
2022/12/26 08:56:11;;;;;;;0.30;0.30;;;;;;;17.66;52.55;101079.44;5055476;28;20028;-66
2022/12/26 08:58:37;;;;;;;0.77;0.30;;;;;;;17.64;53.05;101081.47;5055149;28;20032;-64
2022/12/26 09:01:14;;;;;;;0.60;0.28;;;;;;;17.68;52.96;101083.66;5055077;28;20036;-63
2022/12/26 09:03:40;;;;;;;1.48;0.20;;;;;;;17.68;53.33;101088.22;5054947;28;20045;-63
2022/12/26 09:06:06;;;;;;;1.08;0.25;;;;;;;17.69;53.64;101088.06;5054736;28;20098;-64
2022/12/26 09:08:33;;;;;;;0.52;0.30;;;;;;;17.71;52.14;101083.31;5038949;28;20024;-64
2022/12/26 09:11:08;;;;;;;0.50;0.30;;;;;;;17.73;52.71;101097.53;5055246;28;20032;-65
2022/12/26 09:13:34;;;;;;;1.20;0.45;;;;;;;17.74;52.41;101103.81;5072759;28;20040;-64
2022/12/26 09:16:14;;;;;;;2.53;0.73;;;;;;;17.74;53.04;101120.91;5037450;28;20127;-64
2022/12/26 09:18:42;;;;;;;1.75;0.70;;;;;;;17.73;52.99;101113.81;5055433;28;20048;-63
2022/12/26 09:21:09;;;;;;;3.38;1.20;;;;;;;17.75;52.69;101124.50;5055343;28;20028;-64
2022/12/26 09:23:35;;;;;;;5.93;1.63;;;;;;;17.78;52.40;101135.81;5077489;28;20058;-64
2022/12/26 09:26:09;;;;;;;1.60;1.10;;;;;;;17.78;52.76;101133.09;5059508;28;20032;-64
2022/12/26 09:28:35;;;;;;;1.48;0.70;;;;;;;17.80;52.60;101131.09;5059178;28;20041;-64
2022/12/26 09:31:02;;;;;;;2.35;0.90;;;;;;;17.81;53.17;101135.47;5058910;28;20029;-64
2022/12/26 09:33:29;;;;;;;3.90;0.93;;;;;;;17.84;52.82;101143.28;5042389;28;20021;-64
2022/12/26 09:35:55;;;;;;;3.70;0.57;;;;;;;17.84;53.12;101137.84;5076684;28;20492;-64
2022/12/26 09:38:20;;;;;;;5.38;0.57;;;;;;;17.87;52.75;101144.78;5042755;28;20029;-63
2022/12/26 09:40:54;;;;;;;1.48;0.47;;;;;;;17.92;52.46;101146.00;5057603;28;20040;-64
2022/12/26 09:44:05;;;;;;;2.10;0.70;;;;;;;17.98;52.38;101148.03;5076482;28;20040;-63
2022/12/26 09:46:49;;;;;;;1.48;0.15;;;;;;;18.11;52.19;101154.81;5032204;28;20045;-63
2022/12/26 09:49:24;;;;;;;1.52;0.60;;;;;;;18.20;52.17;101153.81;5058353;28;20040;-63
2022/12/26 09:51:54;;;;;;;2.97;0.60;;;;;;;18.28;52.28;101156.50;5058522;28;20496;-63
2022/12/26 09:54:32;;;;;;;4.53;0.60;;;;;;;18.31;52.32;101157.03;5058495;28;20116;-63
2022/12/26 09:57:00;;;;;;;0.35;0.30;;;;;;;18.25;52.02;101173.97;5058410;28;20036;-63
2022/12/26 09:59:26;;;;;;;3.13;0.50;;;;;;;18.24;52.22;101176.84;5058671;28;20035;-64
2022/12/26 10:01:52;;;;;;;2.63;0.63;;;;;;;18.20;52.40;101175.50;5075095;28;20404;-63
2022/12/26 10:04:26;;;;;;;1.10;0.82;;;;;;;18.18;52.47;101163.94;5041518;28;20033;-64
2022/12/26 10:07:00;;;;;;;5.32;0.50;;;;;;;18.18;52.40;101156.66;5041431;28;20089;-63
2022/12/26 10:09:39;;;;;;;0.77;0.17;;;;;;;18.21;52.49;101156.31;5057281;28;20451;-63
2022/12/26 10:12:08;;;;;;;1.15;0.40;;;;;;;18.19;52.17;101143.97;5057025;28;20024;-64
2022/12/26 10:15:11;;;;;;;1.33;0.50;;;;;;;18.23;51.11;101145.34;5076515;28;20028;-65
2022/12/26 10:17:45;;;;;;;2.05;0.80;;;;;;;18.27;52.09;101141.25;5057587;28;20056;-64
2022/12/26 10:20:31;;;;;;;2.42;0.80;;;;;;;18.58;50.98;101145.81;5076106;28;20024;-63
2022/12/26 10:23:24;;;;;;;3.20;0.45;;;;;;;18.75;51.12;101138.47;5057718;28;20508;-64
2022/12/26 10:25:53;;;;;;;2.85;0.40;;;;;;;18.76;51.14;101145.56;5057679;28;20036;-64
2022/12/26 10:28:28;;;;;;;0.68;0.30;;;;;;;18.82;51.16;101144.88;5056864;28;20112;-67
2022/12/26 10:30:57;;;;;;;1.48;0.32;;;;;;;18.79;50.91;101149.81;5040778;28;20029;-65
2022/12/26 10:33:53;;;;;;;1.90;0.95;;;;;;;18.80;50.88;101155.06;5074371;28;20491;-64
2022/12/26 10:36:40;;;;;;;1.20;0.40;;;;;;;18.81;50.82;101156.78;5057577;28;20090;-63
2022/12/26 10:39:14;;;;;;;0.52;0.15;;;;;;;18.82;50.99;101166.59;5040646;28;20028;-64
2022/12/26 10:41:46;;;;;;;1.27;0.65;;;;;;;18.85;51.41;101151.81;5057463;28;20541;-64
2022/12/26 10:44:12;;;;;;;3.13;0.70;;;;;;;18.97;50.61;101151.28;5057729;28;20059;-65
2022/12/26 10:46:51;;;;;;;0.82;0.50;;;;;;;18.98;50.77;101147.53;5057320;28;20037;-66
2022/12/26 10:49:19;;;;;;;3.30;0.45;;;;;;;18.90;50.92;101155.69;5057526;28;20056;-64
2022/12/26 10:51:45;;;;;;;1.45;0.60;;;;;;;18.84;51.20;101152.84;5040645;28;20100;-64
2022/12/26 10:54:15;;;;;;;4.60;0.50;;;;;;;18.73;51.31;101145.94;5057021;28;20104;-65
2022/12/26 10:56:41;;;;;;;3.72;0.50;;;;;;;18.66;51.26;101153.06;5057535;28;20112;-65
2022/12/26 10:59:14;;;;;;;3.72;0.60;;;;;;;18.56;51.40;101147.81;5057443;28;20051;-62
2022/12/26 11:01:46;;;;;;;0.63;0.28;;;;;;;18.49;51.66;101152.25;5057085;28;20504;-63
2022/12/26 11:04:21;;;;;;;1.45;0.35;;;;;;;18.56;51.36;101155.16;5058253;28;20036;-63
2022/12/26 11:06:51;;;;;;;1.67;0.68;;;;;;;18.54;51.38;101146.31;5057728;28;20040;-62
2022/12/26 11:09:39;;;;;;;3.35;0.60;;;;;;;18.54;51.64;101162.59;5057646;28;20032;-62
2022/12/26 11:12:37;;;;;;;3.30;0.28;;;;;;;18.48;51.62;101164.13;5040624;28;20037;-61
2022/12/26 11:15:06;;;;;;;2.70;0.40;;;;;;;18.46;51.32;101170.72;5075067;28;20484;-62
2022/12/26 11:17:36;;;;;;;2.28;0.47;;;;;;;18.59;51.00;101179.22;5040900;28;20029;-62
2022/12/26 11:20:22;;;;;;;1.48;0.60;;;;;;;18.53;51.73;101169.91;5075065;28;20036;-62
2022/12/26 11:22:48;;;;;;;2.05;0.35;;;;;;;18.38;51.35;101179.72;5074870;28;20112;-62
2022/12/26 11:25:20;;;;;;;2.65;0.73;;;;;;;18.27;51.88;101171.06;5056904;28;20059;-63
2022/12/26 11:27:51;;;;;;;2.95;0.60;;;;;;;18.23;51.28;101175.97;5056665;28;20037;-62
2022/12/26 11:30:30;;;;;;;0.63;0.52;;;;;;;18.22;51.65;101173.44;5039682;28;20385;-62
2022/12/26 11:33:03;;;;;;;2.92;0.40;;;;;;;18.22;51.68;101182.44;5056663;28;20480;-62
2022/12/26 11:35:35;;;;;;;0.28;0.28;;;;;;;18.18;51.39;101174.78;5073720;28;20397;-62
2022/12/26 11:38:03;;;;;;;0.65;0.40;;;;;;;18.15;52.22;101177.84;5074616;28;20154;-62
2022/12/26 11:40:36;;;;;;;4.88;1.00;;;;;;;18.24;51.73;101183.09;5039728;28;20036;-62
2022/12/26 11:43:05;;;;;;;2.38;0.55;;;;;;;18.28;51.13;101183.63;5056476;28;20039;-62
2022/12/26 11:45:35;;;;;;;1.00;0.52;;;;;;;18.28;51.96;101183.63;5072874;28;20044;-62
2022/12/26 11:48:01;;;;;;;5.82;0.75;;;;;;;18.22;51.88;101176.16;5056588;28;20025;-64
2022/12/26 11:50:28;;;;;;;1.98;0.50;;;;;;;18.18;51.30;101183.78;5074455;28;20043;-62
2022/12/26 11:52:56;;;;;;;3.80;0.70;;;;;;;18.17;52.16;101186.69;5039912;28;20063;-62
2022/12/26 11:55:22;;;;;;;1.13;0.30;;;;;;;18.09;52.04;101187.50;5056087;28;20036;-62
2022/12/26 11:58:04;;;;;;;3.03;0.70;;;;;;;18.01;52.04;101188.34;5073897;28;20037;-65
2022/12/26 12:00:30;;;;;;;2.58;0.40;;;;;;;17.92;51.69;101192.06;5039804;28;20033;-64
2022/12/26 12:02:56;;;;;;;1.92;0.65;;;;;;;17.80;52.25;101193.44;5055873;28;20627;-62
2022/12/26 12:05:27;;;;;;;3.92;1.55;;;;;;;17.64;52.04;101201.53;5056418;28;20021;-65
2022/12/26 12:07:55;;;;;;;2.97;0.80;;;;;;;17.51;52.67;101203.81;5055697;28;20581;-63
2022/12/26 12:10:35;;;;;;;2.15;0.50;;;;;;;17.35;53.41;101201.06;5073473;28;20119;-66
2022/12/26 12:13:16;;;;;;;2.10;1.38;;;;;;;17.25;52.41;101200.34;5073584;28;20054;-63
2022/12/26 12:16:05;;;;;;;3.40;1.15;;;;;;;17.14;53.48;101192.53;5073428;28;20102;-64
2022/12/26 12:18:30;;;;;;;8.60;2.45;;;;;;;17.08;53.04;101194.03;5073479;28;20040;-64
2022/12/26 12:21:15;;;;;;;5.78;2.33;;;;;;;17.07;53.50;101191.47;5073334;28;20029;-63
2022/12/26 12:24:16;;;;;;;4.78;2.10;;;;;;;17.06;52.40;101196.03;5054751;28;20037;-63
2022/12/26 12:26:57;;;;;;;6.22;2.55;;;;;;;17.05;52.86;101199.75;5001393;28;20044;-63
2022/12/26 12:29:41;;;;;;;3.28;1.20;;;;;;;17.08;53.53;101209.41;5038966;28;20056;-63
2022/12/26 12:32:25;;;;;;;7.18;1.30;;;;;;;17.05;53.38;101199.75;5073372;28;20067;-63
2022/12/26 12:35:18;;;;;;;5.95;1.90;;;;;;;17.01;53.53;101213.75;5073809;28;20037;-63
2022/12/26 12:38:09;;;;;;;3.10;1.08;;;;;;;16.99;53.33;101215.78;5055398;28;20028;-63
2022/12/26 12:40:50;;;;;;;5.80;1.00;;;;;;;17.00;54.13;101231.03;5054505;28;20086;-63
2022/12/26 12:43:25;;;;;;;3.60;0.85;;;;;;;17.02;53.63;101226.28;5073120;28;20085;-63
2022/12/26 12:45:56;;;;;;;1.58;0.40;;;;;;;16.98;53.51;101239.28;5038476;28;20040;-62
2022/12/26 12:48:32;;;;;;;5.75;0.73;;;;;;;16.88;53.71;101252.94;5055412;28;20497;-62
2022/12/26 12:51:10;;;;;;;3.15;1.00;;;;;;;16.84;53.55;101234.47;5055082;28;20357;-62
2022/12/26 12:53:48;;;;;;;1.77;0.38;;;;;;;16.80;52.93;101243.94;5073464;28;20116;-62
2022/12/26 12:56:25;;;;;;;1.00;0.45;;;;;;;16.78;52.69;101241.34;5054222;28;20080;-63
2022/12/26 12:59:13;;;;;;;0.88;0.45;;;;;;;16.70;52.52;101243.16;5072747;28;20040;-63
2022/12/26 13:01:42;;;;;;;3.78;0.47;;;;;;;16.58;52.76;101256.09;5072900;28;20037;-63
2022/12/26 13:04:10;;;;;;;0.90;0.40;;;;;;;16.56;52.79;101265.38;5072824;28;20032;-63
2022/12/26 13:06:41;;;;;;;7.18;0.90;;;;;;;16.54;51.66;101273.66;5073066;28;20052;-63
2022/12/26 13:09:12;;;;;;;5.63;0.95;;;;;;;16.55;51.36;101272.66;5054808;28;20032;-63
2022/12/26 13:11:42;;;;;;;6.22;0.77;;;;;;;16.59;52.37;101270.47;5054728;28;20024;-63
2022/12/26 13:14:19;;;;;;;2.25;0.60;;;;;;;16.60;51.58;101274.88;5055237;28;20533;-63
2022/12/26 13:17:09;;;;;;;4.43;1.23;;;;;;;16.64;51.84;101278.94;5054766;28;20570;-64
2022/12/26 13:19:44;;;;;;;1.42;0.63;;;;;;;16.67;51.39;101271.38;5055037;28;20037;-64
2022/12/26 13:22:16;;;;;;;2.78;0.40;;;;;;;16.73;51.01;101280.72;5054720;28;20028;-63
2022/12/26 13:24:51;;;;;;;2.25;0.57;;;;;;;16.73;51.17;101286.13;5054688;28;20408;-63
2022/12/26 13:27:30;;;;;;;5.85;0.88;;;;;;;16.78;51.99;101281.09;5054764;28;20062;-64
2022/12/26 13:29:56;;;;;;;2.70;0.70;;;;;;;16.79;51.46;101280.94;5054809;28;20029;-65
2022/12/26 13:32:24;;;;;;;3.45;0.70;;;;;;;16.84;51.23;101281.31;5038747;28;20065;-63
2022/12/26 13:34:54;;;;;;;1.23;0.77;;;;;;;16.88;51.08;101274.59;5054708;28;20033;-63
2022/12/26 13:37:38;;;;;;;2.63;0.85;;;;;;;16.92;49.92;101275.09;5071599;28;20428;-63
2022/12/26 13:40:10;;;;;;;2.40;0.82;;;;;;;16.95;50.60;101269.38;5054557;28;20064;-62
2022/12/26 13:45:34;;;;;;;1.35;0.82;;;;;;;16.99;50.55;101278.03;5056930;28;20079;-62
2022/12/26 13:48:01;;;;;;;2.53;0.77;;;;;;;17.00;50.51;101282.44;5072158;28;20377;-62
2022/12/26 13:50:45;;;;;;;7.43;0.80;;;;;;;17.05;49.95;101293.63;5038176;28;20036;-62
2022/12/26 13:53:23;;;;;;;2.03;0.95;;;;;;;17.05;49.67;101285.53;5054532;28;20496;-62